Terrace Airport
CYXT : now visible

Airfield :











YOU CAN JOIN US ON...

 
LOGIN :

Register | Disclaimer

   EN    FR    IT 

 









Legend :    VFR   Marginal VFR   IFR   Intensive IFR   Very Intensive IFR
Visi :
Ceiling :
>= 8 km
>= 3000ft
5 to 8 km
1000 to 3000 ft
1500m to 5 km
500 to 1000 ft
800 to 1500m
200 to 500 ft
< 800m
< 200 ft
Symbols :   Thunderstorms  Fog  Heavy snow  Heavy precipitations  Wind > 20 kt






- Airport Elevation : 713 ft
- IATA code : YXT


CYXT - Terrace

CURRENT METAR :
  • 060300Z 23004KT 20SM FEW160 FEW240 05/M11 A2973 RMK AC1CC1 SLP080

EXPIRED METARs :
  • 060200Z 25006KT 230V290 20SM FEW210 07/M12 A2974 RMK CC2 SLP081
  • 060100Z 29008KT 230V300 20SM FEW200 08/M12 A2974 RMK CI1 CI TR SLP080

TAF AMD TAF CYXT
Valid from the 06 at 01:00 until the 06 at 13:00 UTC


060107Z 0601/0613 33005KT P6SM SKC
FM060900 18005KT P6SM FEW007 SCT020 BKN070
TEMPO 0609/0613 4SM -SN BR SCT007 BKN020
PROB30 0609/0613 1SM BR OVC004 RMK NXT FCST BY 060700Z



MET'MAP, your aeronautical weather chart ! - Copyright ORBIFLY December 2007 - Disclaimer

ORBIFLY MET'MAP TEAM :

Programming & Development : Alexandra Zaïnal
Concept & original design : Baudouin d'Aumeries
Assistance for programming : Marc-Olivier Méhu
Technical & hardware support : Manuel Goepfert

Contact : metmap@orbifly.com




SOURCES & CREDITS :

   NOAA       Earth
Advisory